NCAR-RAP Real-Time Weather Data

Output produced by METARs form (28 August 2014  11:04 UTC)
found at http://weather.rap.ucar.edu/surface/
 
Conditions at: KALB observed 28 August 2014  10:51 UTC
Temperature: 17.2°C (63°F)
Dewpoint: 14.4°C (58°F) [RH = 84%]
Pressure (altimeter): 29.92 inches Hg (1013.3 mb)
[Sea-level pressure: 1013.0 mb]
Winds: from the NW (320 degrees) at 7 MPH (6 knots; 3.1 m/s)
Visibility: 10 or more miles (16+ km)
Ceiling: at least 12,000 feet AGL
Clouds: few clouds at 1500 feet AGL
few clouds at 4000 feet AGL
scattered clouds at 5500 feet AGL
scattered clouds at 20000 feet AGL
Present Weather: no significant weather observed at this time
KALB 281051Z 32006KT 10SM FEW015 FEW040 SCT055 SCT200 17/14 A2992 RMK AO2 SLP130 T01720144

Conditions at: KALB observed 28 August 2014  09:51 UTC
Temperature: 17.8°C (64°F)
Dewpoint: 14.4°C (58°F) [RH = 80%]
Pressure (altimeter): 29.91 inches Hg (1013.0 mb)
[Sea-level pressure: 1012.7 mb]
Winds: from the WNW (290 degrees) at 9 MPH (8 knots; 4.2 m/s)
Visibility: 10 or more miles (16+ km)
Ceiling: 4500 feet AGL
Clouds: few clouds at 2700 feet AGL
broken clouds at 4500 feet AGL
Present Weather: no significant weather observed at this time
KALB 280951Z 29008KT 10SM FEW027 BKN045 18/14 A2991 RMK AO2 SLP127 BKN V SCT T01780144

Conditions at: KALB observed 28 August 2014  08:51 UTC
Temperature: 17.2°C (63°F)
Dewpoint: 14.4°C (58°F) [RH = 84%]
Pressure (altimeter): 29.90 inches Hg (1012.6 mb)
[Sea-level pressure: 1012.2 mb]
Winds: from the W (280 degrees) at 5 MPH (4 knots; 2.1 m/s)
Visibility: 10 or more miles (16+ km)
Ceiling: at least 12,000 feet AGL
Clouds: few clouds at 4400 feet AGL
few clouds at 5000 feet AGL
Present Weather: no significant weather observed at this time
KALB 280851Z 28004KT 10SM FEW044 FEW050 17/14 A2990 RMK AO2 SLP122 T01720144 56007

Conditions at: KALB observed 28 August 2014  07:51 UTC
Temperature: 17.8°C (64°F)
Dewpoint: 14.4°C (58°F) [RH = 80%]
Pressure (altimeter): 29.90 inches Hg (1012.6 mb)
[Sea-level pressure: 1012.3 mb]
Winds: from the WSW (240 degrees) at 3 MPH (3 knots; 1.6 m/s)
Visibility: 10 or more miles (16+ km)
Ceiling: 5000 feet AGL
Clouds: few clouds at 3100 feet AGL
scattered clouds at 4400 feet AGL
broken clouds at 5000 feet AGL
Present Weather: no significant weather observed at this time
KALB 280751Z 24003KT 10SM FEW031 SCT044 BKN050 18/14 A2990 RMK AO2 SLP123 SCT V FEW T01780144

Conditions at: KALB observed 28 August 2014  06:51 UTC
Temperature: 17.8°C (64°F)
Dewpoint: 14.4°C (58°F) [RH = 80%]
Pressure (altimeter): 29.91 inches Hg (1013.0 mb)
[Sea-level pressure: 1012.5 mb]
Winds: from the WNW (300 degrees) at 5 MPH (4 knots; 2.1 m/s)
Visibility: 10 or more miles (16+ km)
Ceiling: 3100 feet AGL
Clouds: broken clouds at 3100 feet AGL
broken clouds at 4300 feet AGL
Present Weather: no significant weather observed at this time
KALB 280651Z 30004KT 10SM BKN031 BKN043 18/14 A2991 RMK AO2 SLP125 T01780144

Conditions at: KALB observed 28 August 2014  05:51 UTC
Temperature: 17.8°C (64°F)
Dewpoint: 13.9°C (57°F) [RH = 78%]
Pressure (altimeter): 29.92 inches Hg (1013.3 mb)
[Sea-level pressure: 1012.8 mb]
Winds: from the WNW (290 degrees) at 5 MPH (4 knots; 2.1 m/s)
Visibility: 10 or more miles (16+ km)
Ceiling: at least 12,000 feet AGL
Clouds: few clouds at 4500 feet AGL
scattered clouds at 13000 feet AGL
Present Weather: no significant weather observed at this time
KALB 280551Z 29004KT 10SM FEW045 SCT130 18/14 A2992 RMK AO2 SLP128 T01780139 10244 20178 58002

Conditions at: KALB observed 28 August 2014  04:51 UTC
Temperature: 19.4°C (67°F)
Dewpoint: 13.9°C (57°F) [RH = 71%]
Pressure (altimeter): 29.93 inches Hg (1013.6 mb)
[Sea-level pressure: 1013.3 mb]
Winds: from the WNW (290 degrees) at 9 MPH (8 knots; 4.2 m/s)
Visibility: 10 or more miles (16+ km)
Ceiling: at least 12,000 feet AGL
Clouds: few clouds at 5000 feet AGL
scattered clouds at 13000 feet AGL
Present Weather: no significant weather observed at this time
KALB 280451Z 29008KT 10SM FEW050 SCT130 19/14 A2993 RMK AO2 SLP133 T01940139 402830194

Conditions at: KALB observed 28 August 2014  03:51 UTC
Temperature: 20.0°C (68°F)
Dewpoint: 12.8°C (55°F) [RH = 63%]
Pressure (altimeter): 29.92 inches Hg (1013.3 mb)
[Sea-level pressure: 1013.1 mb]
Winds: from the WNW (290 degrees) at 9 MPH (8 knots; 4.2 m/s)
Visibility: 10 or more miles (16+ km)
Ceiling: at least 12,000 feet AGL
Clouds: few clouds at 9500 feet AGL
scattered clouds at 13000 feet AGL
Present Weather: no significant weather observed at this time
KALB 280351Z 29008KT 10SM FEW095 SCT130 20/13 A2992 RMK AO2 SLP131 T02000128

Conditions at: KALB observed 28 August 2014  02:51 UTC
Temperature: 20.6°C (69°F)
Dewpoint: 13.3°C (56°F) [RH = 63%]
Pressure (altimeter): 29.92 inches Hg (1013.3 mb)
[Sea-level pressure: 1013.1 mb]
Winds: from the W (270 degrees) at 10 MPH (9 knots; 4.7 m/s)
Visibility: 10 or more miles (16+ km)
Ceiling: 13000 feet AGL
Clouds: few clouds at 9500 feet AGL
broken clouds at 13000 feet AGL
Present Weather: no significant weather observed at this time
KALB 280251Z 27009KT 10SM FEW095 BKN130 21/13 A2992 RMK AO2 SLP131 T02060133 50001

Conditions at: KALB observed 28 August 2014  01:51 UTC
Temperature: 22.2°C (72°F)
Dewpoint: 13.9°C (57°F) [RH = 59%]
Pressure (altimeter): 29.93 inches Hg (1013.6 mb)
[Sea-level pressure: 1013.4 mb]
Winds: from the W (260 degrees) at 12 MPH (10 knots; 5.2 m/s)
Visibility: 10 or more miles (16+ km)
Ceiling: 15000 feet AGL
Clouds: broken clouds at 15000 feet AGL
overcast cloud deck at 20000 feet AGL
Present Weather: no significant weather observed at this time
KALB 280151Z 26010KT 10SM BKN150 OVC200 22/14 A2993 RMK AO2 SLP134 T02220139

Conditions at: KALB observed 28 August 2014  00:51 UTC
Temperature: 22.8°C (73°F)
Dewpoint: 15.0°C (59°F) [RH = 61%]
Pressure (altimeter): 29.94 inches Hg (1014.0 mb)
[Sea-level pressure: 1013.5 mb]
Winds: from the W (280 degrees) at 7 MPH (6 knots; 3.1 m/s)
Visibility: 10 or more miles (16+ km)
Ceiling: 20000 feet AGL
Clouds: broken clouds at 20000 feet AGL
Present Weather: no significant weather observed at this time
KALB 280051Z 28006KT 10SM BKN200 23/15 A2994 RMK AO2 SLP135 T02280150

Conditions at: KALB observed 27 August 2014  23:51 UTC
Temperature: 24.4°C (76°F)
Dewpoint: 17.2°C (63°F) [RH = 64%]
Pressure (altimeter): 29.92 inches Hg (1013.3 mb)
[Sea-level pressure: 1013.0 mb]
Winds: from the NW (310 degrees) at 9 MPH (8 knots; 4.2 m/s)
Visibility: 10 or more miles (16+ km)
Ceiling: at least 12,000 feet AGL
Clouds: few clouds at 5500 feet AGL
few clouds at 16000 feet AGL
Present Weather: no significant weather observed at this time
KALB 272351Z 31008KT 10SM FEW055 FEW160 24/17 A2992 RMK AO2 SLP130 T02440172 10283 20244 53007